Aviation Digital Data Service (ADDS)

Output produced by METARs form (0519 UTC 25 May 2018)
found at http://www.aviationweather.gov/adds/metars/
 
FNBG 250500Z 00000KT 9999 SCT020 BKN090 23/20 Q1012
TAF FNBG 242245Z 2500/2512 22005KT 8000 SCT016 
     TEMPO 2503/2507 VRB03KT 4000 BR BKN018 
     BECMG 2510/2512 31010KT 9000 NSC
       
FNCA 250500Z 17005KT 8000 SCT010 BKN020 24/22 Q1011
TAF FNCA 242245Z 2500/2512 23005KT 8000 SCT010 BKN020 
     TEMPO 2503/2507 VRB03KT 5000 BR SCT015 BKN022 
     BECMG 2510/2512 17007KT 9000 FEW016 BKN025
       
TAF FNDU 242245Z 2500/2512 23005KT 8000 FEW017 
     TEMPO 2508/2512 VRB03KT 9999 FEW022
       
TAF FNHU 242245Z 2500/2512 16005KT 8000 SCT018 
     TEMPO 2508/2512 08005KT 9999 FEW022
       
TAF FNKU 242245Z 2500/2512 17005KT 8000 BKN020 
     TEMPO 2508/2512 09005KT 9999 FEW015 SCT018
       
TAF FNLU 250445Z 2506/2612 14005KT 5000 BR SCT020 BKN025 
     BECMG 2507/2510 VRB03KT 8000 FEW020 SCT025 
     TEMPO 2513/2517 26009KT 9999 FEW020 
     BECMG 2520/2522 19006KT CAVOK 
     TEMPO 2600/2604 VRB03KT 9999 SCT020 
     BECMG 2606/2608 8000 SCT016 BKN020
       
FNUE 250500Z 00000KT 9999 BKN025 17/14 Q1020
TAF FNUE 242245Z 2500/2512 15005KT 8000 FEW020 
     TEMPO 2508/2512 09005KT 9999 SCT023
       
TAF FNMA 242245Z 2500/2512 VRB03KT 8000 NSC 
     TEMPO 2503/2507 0200 FG BKN015 OVC020 
     BECMG 2510/2512 08005KT 9999 FEW015
       
TAF FNME 242245Z 2500/2512 15005KT 8000 SCT016 
     PROB30 
     TEMPO 2503/2507 VRB03KT 5000 BR BKN015 
     BECMG 2510/2512 09005KT 9999 FEW015 SCT018
       
TAF FNMO 242245Z 2500/2512 16005G15KT CAVOK 
     BECMG 2510/2512 28010KT
       
TAF FNGI 242245Z 2500/2512 VRB03KT 8000 NSC 
     BECMG 2510/2512 08005KT 9999 FEW015
       
TAF FNSA 242245Z 2500/2512 14005KT 8000 FEW015 
     TEMPO 2508/2512 09005KT 9999 SCT020
       
TAF FNSO 242245Z 2500/2512 20005KT 8000 FEW010 SCT020 
     TEMPO 2503/2507 VRB03KT 4000 BR SCT015 BKN020 
     BECMG 2510/2512 9999 SCT018 BKN025